Time;durP1;ratioP1;P1;durP2;ratioP2;P2;SDS_P1;SDS_P2;PMS_P1;PMS_P2;Temp;Humidity;BMP_temperature;BMP_pressure;BME280_temperature;BME280_humidity;BME280_pressure;Samples;Min_cycle;Max_cycle;Signal;HPM_P1;HPM_P2
2022/03/12 00:00:07;;;;;;;17.15;16.08;;;5.70;3.20;;;;;;4973389;28;20183;-70
2022/03/12 00:02:34;;;;;;;22.05;19.95;;;5.70;3.20;;;;;;4973921;28;20185;-70
2022/03/12 00:05:07;;;;;;;20.50;19.00;;;5.70;3.20;;;;;;4973371;28;20600;-70
2022/03/12 00:07:41;;;;;;;19.02;17.83;;;5.70;2.90;;;;;;4972997;28;20210;-70
2022/03/12 00:10:08;;;;;;;18.05;16.45;;;5.80;3.30;;;;;;4973496;28;20187;-70
2022/03/12 00:12:37;;;;;;;19.15;17.67;;;5.80;2.90;;;;;;4972987;28;20687;-70
2022/03/12 00:15:09;;;;;;;18.48;17.10;;;5.90;2.60;;;;;;4972957;28;20178;-70
2022/03/12 00:17:36;;;;;;;21.17;19.63;;;6.00;2.60;;;;;;4972669;28;20699;-71
2022/03/12 00:20:04;;;;;;;20.15;18.75;;;5.90;2.50;;;;;;4973094;28;20261;-70
2022/03/12 00:22:29;;;;;;;20.73;19.25;;;5.90;2.70;;;;;;4972772;28;20185;-70
2022/03/12 00:24:57;;;;;;;20.30;18.90;;;5.90;2.70;;;;;;4972920;28;20673;-70
2022/03/12 00:27:22;;;;;;;19.08;17.65;;;6.00;2.60;;;;;;4971097;28;20222;-71
2022/03/12 00:29:48;;;;;;;20.57;18.80;;;6.00;2.70;;;;;;4973266;28;20831;-66
2022/03/12 00:32:14;;;;;;;20.42;19.02;;;6.00;2.30;;;;;;4973631;28;20178;-69
2022/03/12 00:34:40;;;;;;;19.87;18.20;;;6.00;2.50;;;;;;4973476;28;20177;-71
2022/03/12 00:37:06;;;;;;;19.97;18.40;;;6.00;2.30;;;;;;4971658;28;20188;-72
2022/03/12 00:39:31;;;;;;;20.92;19.52;;;6.00;2.30;;;;;;4974059;28;20569;-71
2022/03/12 00:41:57;;;;;;;20.13;18.73;;;5.90;2.20;;;;;;4973496;28;20184;-71
2022/03/12 00:44:22;;;;;;;20.27;18.97;;;5.90;2.20;;;;;;4975361;28;20182;-69
2022/03/12 00:46:48;;;;;;;20.03;18.63;;;5.90;2.50;;;;;;4975178;28;20186;-69
2022/03/12 00:49:14;;;;;;;19.63;18.43;;;5.90;2.50;;;;;;4977420;28;20252;-71
2022/03/12 00:51:39;;;;;;;18.80;17.40;;;5.90;2.50;;;;;;4978865;28;20194;-72
2022/03/12 00:54:05;;;;;;;19.70;18.00;;;5.90;2.60;;;;;;4978025;28;20567;-72
2022/03/12 00:56:31;;;;;;;20.67;19.05;;;6.00;2.50;;;;;;4976818;28;20166;-71
2022/03/12 00:58:58;;;;;;;19.33;17.90;;;5.90;2.50;;;;;;4976628;28;20213;-70
2022/03/12 01:01:26;;;;;;;19.80;18.35;;;5.90;2.60;;;;;;4977581;28;20300;-71
2022/03/12 01:03:51;;;;;;;18.83;17.52;;;5.90;2.70;;;;;;4977330;28;20179;-71
2022/03/12 01:06:18;;;;;;;20.20;18.70;;;5.90;2.60;;;;;;4977142;28;20679;-71
2022/03/12 01:08:44;;;;;;;20.40;18.95;;;5.90;3.00;;;;;;4977312;28;20212;-71
2022/03/12 01:11:11;;;;;;;19.42;18.02;;;5.90;2.90;;;;;;4976240;28;20277;-71
2022/03/12 01:13:38;;;;;;;21.70;20.17;;;5.80;2.80;;;;;;4977034;28;20205;-71
2022/03/12 01:16:04;;;;;;;21.80;20.20;;;5.80;3.00;;;;;;4969935;28;20598;-71
2022/03/12 01:18:30;;;;;;;21.80;20.00;;;5.80;3.10;;;;;;4958456;28;20194;-71
2022/03/12 01:21:16;;;;;;;20.00;18.63;;;5.90;3.00;;;;;;4958430;28;20178;-70
2022/03/12 01:23:44;;;;;;;19.85;18.25;;;5.90;3.30;;;;;;4977103;28;20546;-71
2022/03/12 01:26:10;;;;;;;20.83;19.13;;;5.80;3.30;;;;;;4977258;28;20176;-71
2022/03/12 01:28:37;;;;;;;20.77;19.20;;;5.80;3.30;;;;;;4977610;28;20264;-71
2022/03/12 01:31:03;;;;;;;20.80;19.27;;;5.90;3.30;;;;;;4977857;28;20181;-71
2022/03/12 01:33:29;;;;;;;20.38;18.73;;;5.80;2.90;;;;;;4976980;28;20236;-72
2022/03/12 01:35:55;;;;;;;20.75;19.20;;;5.80;3.30;;;;;;4976791;28;20545;-71
2022/03/12 01:38:32;;;;;;;22.58;20.98;;;5.80;3.30;;;;;;4976381;28;20216;-71
2022/03/12 01:41:02;;;;;;;19.48;18.27;;;5.80;3.30;;;;;;4977926;28;20185;-70
2022/03/12 01:43:31;;;;;;;18.80;17.80;;;5.80;3.30;;;;;;4977630;28;20205;-71
2022/03/12 01:46:00;;;;;;;20.17;18.77;;;5.80;3.30;;;;;;4978154;28;20184;-71
2022/03/12 01:48:25;;;;;;;21.02;19.73;;;5.80;3.30;;;;;;4977788;28;20201;-71
2022/03/12 01:50:51;;;;;;;19.80;18.17;;;5.80;3.30;;;;;;4978030;28;20186;-71
2022/03/12 01:53:17;;;;;;;21.10;19.27;;;5.80;3.90;;;;;;4974932;28;20219;-71
2022/03/12 01:55:43;;;;;;;19.57;18.17;;;5.80;3.30;;;;;;4974798;28;20210;-71
2022/03/12 01:58:09;;;;;;;20.10;18.83;;;5.80;3.30;;;;;;4976341;28;20228;-71
2022/03/12 02:00:49;;;;;;;20.05;18.67;;;5.80;3.30;;;;;;4975893;28;20174;-70
2022/03/12 02:03:19;;;;;;;19.20;17.90;;;5.80;3.30;;;;;;4961600;28;20189;-70
2022/03/12 02:05:45;;;;;;;18.45;17.23;;;5.80;3.30;;;;;;4975649;28;20235;-70
2022/03/12 02:08:13;;;;;;;20.70;19.20;;;5.90;3.30;;;;;;4975389;28;20214;-70
2022/03/12 02:10:38;;;;;;;21.17;19.60;;;5.90;3.40;;;;;;4975883;28;20424;-70
2022/03/12 02:13:04;;;;;;;21.40;19.73;;;5.80;3.30;;;;;;4975684;28;20257;-70
2022/03/12 02:15:29;;;;;;;19.57;18.30;;;5.90;3.30;;;;;;4975815;28;20536;-71
2022/03/12 02:17:55;;;;;;;19.03;17.83;;;5.90;3.10;;;;;;4975153;28;20600;-71
2022/03/12 02:20:22;;;;;;;20.03;18.43;;;5.90;3.40;;;;;;4975725;28;20186;-71
2022/03/12 02:22:52;;;;;;;19.00;17.60;;;6.00;3.40;;;;;;4975021;28;20227;-71
2022/03/12 02:25:24;;;;;;;21.35;19.90;;;6.00;3.30;;;;;;4975455;28;20185;-71
2022/03/12 02:27:49;;;;;;;19.33;18.02;;;6.00;3.30;;;;;;4975256;28;20194;-71
2022/03/12 02:30:15;;;;;;;21.00;19.23;;;5.90;3.10;;;;;;4975485;28;20183;-70
2022/03/12 02:32:40;;;;;;;20.40;18.37;;;5.90;3.30;;;;;;4974401;28;20206;-70
2022/03/12 02:35:08;;;;;;;20.93;18.93;;;5.80;3.30;;;;;;4975833;28;20462;-70
2022/03/12 02:37:34;;;;;;;20.55;19.23;;;5.80;3.30;;;;;;4975393;28;20437;-70
2022/03/12 02:40:03;;;;;;;20.93;19.33;;;5.80;3.30;;;;;;4975688;28;20258;-71
2022/03/12 02:42:29;;;;;;;18.13;16.95;;;5.80;3.30;;;;;;4975222;28;20165;-71
2022/03/12 02:44:56;;;;;;;19.20;17.70;;;5.70;3.20;;;;;;4975590;28;20170;-70
2022/03/12 02:47:26;;;;;;;20.42;18.90;;;5.80;3.30;;;;;;4974705;28;20231;-70
2022/03/12 02:49:57;;;;;;;19.13;17.80;;;5.70;3.20;;;;;;4975099;28;20648;-69
2022/03/12 02:52:27;;;;;;;22.17;20.60;;;5.70;3.20;;;;;;4974905;28;20184;-70
2022/03/12 02:54:53;;;;;;;21.33;19.52;;;5.70;3.20;;;;;;4975720;28;20189;-70
2022/03/12 02:57:29;;;;;;;20.52;18.90;;;5.70;3.20;;;;;;4976383;28;20194;-72
2022/03/12 02:59:58;;;;;;;20.02;18.63;;;5.50;3.70;;;;;;4976616;28;20644;-70
2022/03/12 03:02:31;;;;;;;20.23;18.83;;;5.50;3.80;;;;;;4975159;28;20178;-69
2022/03/12 03:04:57;;;;;;;20.13;18.75;;;5.50;3.50;;;;;;4974780;28;20178;-70
2022/03/12 03:07:24;;;;;;;20.40;18.80;;;5.50;3.80;;;;;;4973738;28;20213;-70
2022/03/12 03:09:50;;;;;;;23.30;21.42;;;5.50;3.60;;;;;;4974766;28;20170;-70
2022/03/12 03:12:18;;;;;;;20.20;18.60;;;5.60;3.70;;;;;;4972546;28;20191;-70
2022/03/12 03:14:44;;;;;;;21.50;19.70;;;5.60;3.50;;;;;;4973339;28;20224;-70
2022/03/12 03:17:13;;;;;;;21.02;19.52;;;5.60;4.00;;;;;;4973497;28;20648;-70
2022/03/12 03:19:39;;;;;;;21.70;19.60;;;5.60;3.70;;;;;;4975209;28;20178;-70
2022/03/12 03:22:06;;;;;;;20.17;18.27;;;5.60;3.50;;;;;;4974395;28;20209;-70
2022/03/12 03:24:32;;;;;;;19.70;18.45;;;5.50;3.60;;;;;;4974034;28;20185;-70
2022/03/12 03:26:59;;;;;;;19.03;17.50;;;5.40;3.90;;;;;;4973690;28;20575;-70
2022/03/12 03:29:27;;;;;;;21.25;19.48;;;5.40;3.90;;;;;;4974067;28;20553;-70
2022/03/12 03:31:53;;;;;;;17.98;16.88;;;5.40;3.80;;;;;;4973981;28;20689;-70
2022/03/12 03:34:19;;;;;;;20.37;19.00;;;5.40;4.10;;;;;;4973428;28;20296;-70
2022/03/12 03:36:46;;;;;;;19.05;17.90;;;5.40;4.80;;;;;;4973394;28;20265;-70
2022/03/12 03:39:12;;;;;;;21.00;19.27;;;5.40;4.60;;;;;;4973688;28;20197;-70
2022/03/12 03:41:37;;;;;;;21.87;20.10;;;5.20;4.80;;;;;;4973407;28;20605;-70
2022/03/12 03:44:05;;;;;;;21.03;19.63;;;5.00;6.30;;;;;;4973960;28;20177;-70
2022/03/12 03:46:31;;;;;;;18.65;17.55;;;4.90;6.20;;;;;;4973601;28;20199;-70
2022/03/12 03:48:57;;;;;;;22.02;20.30;;;4.80;6.30;;;;;;4973666;28;20205;-70
2022/03/12 03:51:22;;;;;;;19.57;18.20;;;4.80;6.40;;;;;;4973396;28;20184;-69
2022/03/12 03:53:49;;;;;;;20.77;19.33;;;4.70;6.60;;;;;;4974100;28;20336;-70
2022/03/12 03:56:15;;;;;;;20.15;18.58;;;4.70;7.00;;;;;;4973651;28;20189;-70
2022/03/12 03:58:41;;;;;;;18.50;17.15;;;4.70;7.10;;;;;;4973396;28;20203;-70
2022/03/12 04:01:12;;;;;;;22.33;20.70;;;4.60;7.00;;;;;;4973755;28;20547;-70
2022/03/12 04:03:41;;;;;;;19.95;18.40;;;4.60;7.00;;;;;;4973659;28;20196;-70
2022/03/12 04:06:07;;;;;;;19.27;18.13;;;4.60;7.00;;;;;;4973030;28;20205;-69
2022/03/12 04:08:34;;;;;;;19.77;18.47;;;4.60;7.10;;;;;;4972736;28;20247;-70
2022/03/12 04:11:04;;;;;;;21.98;20.27;;;4.50;7.50;;;;;;4973241;28;20193;-70
2022/03/12 04:13:30;;;;;;;20.58;18.95;;;4.30;8.00;;;;;;4973389;28;20215;-70
2022/03/12 04:15:58;;;;;;;21.95;20.08;;;4.40;7.70;;;;;;4972803;28;20219;-70
2022/03/12 04:18:25;;;;;;;20.77;18.85;;;4.40;7.60;;;;;;4972292;28;20236;-70
2022/03/12 04:20:51;;;;;;;21.65;19.95;;;4.40;7.80;;;;;;4973270;28;20289;-70
2022/03/12 04:23:23;;;;;;;21.75;20.02;;;4.50;7.60;;;;;;4973131;28;20177;-67
2022/03/12 04:25:54;;;;;;;19.55;18.15;;;4.50;7.50;;;;;;4972932;28;20189;-68
2022/03/12 04:28:20;;;;;;;19.55;18.05;;;4.50;7.60;;;;;;4972854;28;20227;-68
2022/03/12 04:30:46;;;;;;;20.92;19.45;;;4.50;7.70;;;;;;4972138;28;20647;-68
2022/03/12 04:33:14;;;;;;;18.73;17.47;;;4.50;7.80;;;;;;4973447;28;20208;-68
2022/03/12 04:35:43;;;;;;;19.58;18.38;;;4.60;7.70;;;;;;4972944;28;20239;-68
2022/03/12 04:38:09;;;;;;;20.45;18.77;;;4.70;7.60;;;;;;4972876;28;20253;-68
2022/03/12 04:40:38;;;;;;;20.75;19.25;;;4.80;7.30;;;;;;4973026;28;20717;-68
2022/03/12 04:43:06;;;;;;;20.52;19.17;;;4.80;7.10;;;;;;4973110;28;20701;-68
2022/03/12 04:45:33;;;;;;;20.02;18.55;;;4.80;7.10;;;;;;4972849;28;20218;-69
2022/03/12 04:47:59;;;;;;;20.77;19.45;;;4.80;7.50;;;;;;4972579;28;20717;-68
2022/03/12 04:50:25;;;;;;;20.08;18.35;;;4.90;8.00;;;;;;4972835;28;20533;-68
2022/03/12 04:52:54;;;;;;;20.57;18.77;;;4.80;8.00;;;;;;4972804;28;20197;-68
2022/03/12 04:55:21;;;;;;;19.25;17.80;;;4.50;9.00;;;;;;4972486;28;20185;-69
2022/03/12 04:57:49;;;;;;;22.13;20.33;;;4.60;8.80;;;;;;4972410;28;20320;-68
2022/03/12 05:00:26;;;;;;;21.52;19.85;;;4.70;8.30;;;;;;4972950;28;20169;-68
2022/03/12 05:03:08;;;;;;;19.75;18.45;;;4.70;7.90;;;;;;4972717;28;20200;-68
2022/03/12 05:05:34;;;;;;;21.73;19.88;;;4.70;7.90;;;;;;4972899;28;20606;-69
2022/03/12 05:08:00;;;;;;;21.17;19.73;;;4.60;8.80;;;;;;4994964;23;20630;-70
2022/03/12 05:10:27;;;;;;;18.87;17.77;;;4.50;8.80;;;;;;4971354;28;20180;-70
2022/03/12 05:12:58;;;;;;;19.90;18.33;;;4.50;8.50;;;;;;4972343;28;20682;-70
2022/03/12 05:15:24;;;;;;;20.27;18.83;;;4.60;8.30;;;;;;4971259;28;20173;-71
2022/03/12 05:17:50;;;;;;;20.60;19.10;;;4.60;8.10;;;;;;4972377;28;20251;-70
2022/03/12 05:20:24;;;;;;;21.17;19.45;;;4.60;8.40;;;;;;4972469;28;20405;-71
2022/03/12 05:22:51;;;;;;;20.70;19.05;;;4.60;8.40;;;;;;4972366;28;20177;-71
2022/03/12 05:25:19;;;;;;;21.77;19.92;;;4.60;8.60;;;;;;4972232;28;20178;-71
2022/03/12 05:27:54;;;;;;;21.17;19.67;;;4.80;7.50;;;;;;4972170;28;20232;-71
2022/03/12 05:30:23;;;;;;;20.83;19.23;;;4.80;7.60;;;;;;4972885;28;20181;-71
2022/03/12 05:32:49;;;;;;;22.98;21.08;;;4.90;7.80;;;;;;4975853;28;20685;-72
2022/03/12 05:35:19;;;;;;;22.45;20.85;;;5.00;8.40;;;;;;4975697;28;20182;-71
2022/03/12 05:37:50;;;;;;;21.00;19.55;;;5.10;8.70;;;;;;4975308;28;20192;-71
2022/03/12 05:40:19;;;;;;;23.05;21.25;;;5.10;9.10;;;;;;4974514;28;20170;-69
2022/03/12 05:42:45;;;;;;;23.17;21.15;;;5.00;9.20;;;;;;4975661;28;20658;-70
2022/03/12 05:45:12;;;;;;;22.83;20.70;;;4.80;9.50;;;;;;4975564;28;20184;-70
2022/03/12 05:47:38;;;;;;;24.05;21.98;;;4.60;10.00;;;;;;4975452;28;20276;-71
2022/03/12 05:50:09;;;;;;;22.77;20.75;;;4.70;10.10;;;;;;4975487;28;20182;-71
2022/03/12 05:52:37;;;;;;;21.00;19.40;;;4.80;9.90;;;;;;4975729;28;20510;-71
2022/03/12 05:55:05;;;;;;;21.77;20.20;;;4.70;9.90;;;;;;4974000;28;20209;-71
2022/03/12 05:57:32;;;;;;;22.83;20.95;;;4.70;10.00;;;;;;4975281;28;20569;-69
2022/03/12 06:00:01;;;;;;;21.48;19.65;;;4.50;10.20;;;;;;4975535;28;20527;-72
2022/03/12 06:02:27;;;;;;;22.25;20.13;;;4.60;10.30;;;;;;4975248;28;20169;-70
2022/03/12 06:04:53;;;;;;;23.07;21.20;;;4.60;10.20;;;;;;4973830;28;20173;-71
2022/03/12 06:07:24;;;;;;;20.40;18.70;;;4.70;10.30;;;;;;4975013;28;20428;-71
2022/03/12 06:09:50;;;;;;;20.40;18.85;;;4.80;9.90;;;;;;4975373;28;20658;-70
2022/03/12 06:12:18;;;;;;;23.63;21.83;;;5.00;9.40;;;;;;4973904;28;20643;-72
2022/03/12 06:14:50;;;;;;;21.25;19.55;;;5.10;9.10;;;;;;4974989;28;20217;-71
2022/03/12 06:17:16;;;;;;;20.80;19.30;;;5.20;8.70;;;;;;4975160;28;20178;-71
2022/03/12 06:19:41;;;;;;;22.20;20.30;;;5.30;8.80;;;;;;4973484;28;20269;-71
2022/03/12 06:22:07;;;;;;;21.50;19.33;;;5.30;8.40;;;;;;4974935;28;20198;-71
2022/03/12 06:24:32;;;;;;;21.27;19.63;;;5.40;8.60;;;;;;4974882;28;20256;-71
2022/03/12 06:26:58;;;;;;;21.60;19.77;;;5.60;7.90;;;;;;4974420;28;20272;-73
2022/03/12 06:29:24;;;;;;;22.10;20.37;;;5.70;7.70;;;;;;4974805;28;20570;-73
2022/03/12 06:31:49;;;;;;;22.83;21.13;;;5.80;7.70;;;;;;4974436;28;20270;-73
2022/03/12 06:34:16;;;;;;;20.47;18.90;;;6.00;7.00;;;;;;4974448;28;20205;-70
2022/03/12 06:36:44;;;;;;;19.13;17.92;;;6.20;6.60;;;;;;4974418;28;20171;-71
2022/03/12 06:39:10;;;;;;;21.52;19.75;;;6.50;6.60;;;;;;4974669;28;20216;-71
2022/03/12 06:41:38;;;;;;;21.25;19.80;;;6.60;5.60;;;;;;4974552;28;20257;-71
2022/03/12 06:44:05;;;;;;;19.83;18.42;;;6.70;5.40;;;;;;4973024;28;20191;-71
2022/03/12 06:46:31;;;;;;;23.00;20.93;;;7.10;4.70;;;;;;4974148;28;20235;-71
2022/03/12 06:48:57;;;;;;;22.97;21.30;;;7.40;4.30;;;;;;4973922;28;20456;-71
2022/03/12 06:51:24;;;;;;;22.67;20.87;;;7.70;3.90;;;;;;4974225;28;20443;-72
2022/03/12 06:53:51;;;;;;;21.47;19.63;;;7.70;3.60;;;;;;4973825;28;20271;-71
2022/03/12 06:56:16;;;;;;;19.97;18.37;;;7.90;3.70;;;;;;4974321;28;20417;-71
2022/03/12 06:58:42;;;;;;;23.10;21.50;;;7.80;4.00;;;;;;4988819;28;20468;-72
2022/03/12 07:01:07;;;;;;;20.87;19.53;;;8.00;3.90;;;;;;4973928;28;20187;-72
2022/03/12 07:03:33;;;;;;;23.20;21.33;;;7.30;4.50;;;;;;4973846;28;20276;-71
2022/03/12 07:05:59;;;;;;;22.23;20.60;;;7.20;5.00;;;;;;4972760;28;20189;-72
2022/03/12 07:08:24;;;;;;;20.90;19.50;;;7.50;5.10;;;;;;4973100;28;20219;-71
2022/03/12 07:10:50;;;;;;;21.27;19.83;;;7.80;4.80;;;;;;4973869;28;20185;-71
2022/03/12 07:13:17;;;;;;;20.97;19.43;;;8.10;4.70;;;;;;4974214;28;20270;-72
2022/03/12 07:15:43;;;;;;;23.40;21.50;;;8.30;4.50;;;;;;4974008;28;20508;-72
2022/03/12 07:18:08;;;;;;;20.30;18.97;;;8.40;3.70;;;;;;4960835;28;20833;-72
2022/03/12 07:20:34;;;;;;;21.90;20.40;;;8.50;3.50;;;;;;4955356;28;20444;-71
2022/03/12 07:23:00;;;;;;;20.30;18.87;;;8.50;3.40;;;;;;4954342;28;20652;-70
2022/03/12 07:25:27;;;;;;;22.27;20.67;;;8.60;2.40;;;;;;4954540;28;20186;-70
2022/03/12 07:27:54;;;;;;;20.63;19.10;;;8.60;2.50;;;;;;4965144;28;20456;-71
2022/03/12 07:30:21;;;;;;;25.77;22.30;;;8.70;2.10;;;;;;4973531;28;20781;-72
2022/03/12 07:32:47;;;;;;;21.77;20.27;;;8.80;1.80;;;;;;4973594;28;20539;-71
2022/03/12 07:35:15;;;;;;;21.80;20.20;;;8.80;1.60;;;;;;4973434;28;20422;-72
2022/03/12 07:37:43;;;;;;;23.67;21.67;;;8.80;1.80;;;;;;4973411;28;20447;-71
2022/03/12 07:40:09;;;;;;;21.97;20.13;;;8.80;2.50;;;;;;4972334;28;20524;-72
2022/03/12 07:42:36;;;;;;;21.70;20.00;;;8.60;2.50;;;;;;4973484;28;20409;-71
2022/03/12 07:45:02;;;;;;;20.70;19.20;;;8.00;2.80;;;;;;4973411;28;20419;-71
2022/03/12 07:47:27;;;;;;;22.33;20.60;;;7.70;3.40;;;;;;4973215;28;20828;-73
2022/03/12 07:49:53;;;;;;;25.50;23.20;;;8.00;3.30;;;;;;4974060;28;20408;-71
2022/03/12 07:52:19;;;;;;;20.87;19.27;;;8.20;3.50;;;;;;4973542;28;20219;-71
2022/03/12 07:54:45;;;;;;;22.63;20.77;;;8.40;2.70;;;;;;4972689;28;20533;-70
2022/03/12 07:57:11;;;;;;;23.63;22.03;;;8.50;2.70;;;;;;4973429;28;20173;-71
2022/03/12 07:59:37;;;;;;;23.17;21.47;;;8.70;2.80;;;;;;4973222;28;20439;-70
2022/03/12 08:02:03;;;;;;;23.87;22.33;;;8.90;3.10;;;;;;4972768;28;20902;-70
2022/03/12 08:04:33;;;;;;;23.80;21.83;;;8.30;2.40;;;;;;4975545;28;20686;-70
2022/03/12 08:07:02;;;;;;;26.47;24.03;;;8.50;3.60;;;;;;4975595;28;20416;-70
2022/03/12 08:09:32;;;;;;;26.47;24.30;;;8.20;2.80;;;;;;4973299;28;20477;-72
2022/03/12 08:11:58;;;;;;;24.53;22.67;;;8.20;3.40;;;;;;4973300;28;20452;-71
2022/03/12 08:14:24;;;;;;;26.00;24.00;;;8.10;3.00;;;;;;4973158;28;20460;-73
2022/03/12 08:16:52;;;;;;;24.33;22.17;;;8.10;3.50;;;;;;4971573;28;20417;-71
2022/03/12 08:19:18;;;;;;;21.97;20.17;;;8.40;3.70;;;;;;4973145;28;20479;-71
2022/03/12 08:21:45;;;;;;;21.37;19.87;;;8.50;3.50;;;;;;4971930;28;20839;-71
2022/03/12 08:24:15;;;;;;;22.77;20.97;;;8.80;3.20;;;;;;4973222;28;20586;-71
2022/03/12 08:26:45;;;;;;;21.17;19.57;;;9.10;2.70;;;;;;4973125;28;20833;-71
2022/03/12 08:29:11;;;;;;;22.33;20.33;;;9.30;2.90;;;;;;4972974;28;20927;-72
2022/03/12 08:31:39;;;;;;;22.93;21.20;;;9.40;1.90;;;;;;4973009;28;20468;-72
2022/03/12 08:34:05;;;;;;;22.33;20.90;;;9.60;2.50;;;;;;4973295;28;21024;-71
2022/03/12 08:36:31;;;;;;;23.37;21.23;;;9.40;1.50;;;;;;4973152;28;20446;-72
2022/03/12 08:38:57;;;;;;;22.70;20.60;;;9.50;1.10;;;;;;4972961;28;20840;-71
2022/03/12 08:41:22;;;;;;;23.67;21.87;;;9.70;1.80;;;;;;4973164;28;20175;-70
2022/03/12 08:43:49;;;;;;;23.57;21.30;;;9.90;1.40;;;;;;4973175;28;20220;-72
2022/03/12 08:46:15;;;;;;;22.83;20.93;;;10.20;1.00;;;;;;4973015;28;20189;-71
2022/03/12 08:48:41;;;;;;;21.60;20.20;;;10.30;1.00;;;;;;4972556;28;20483;-71
2022/03/12 08:51:07;;;;;;;22.23;20.63;;;10.40;1.00;;;;;;4973040;28;20451;-71
2022/03/12 08:53:33;;;;;;;22.87;21.00;;;10.60;1.00;;;;;;4972882;28;20211;-71
2022/03/12 08:56:01;;;;;;;23.67;21.43;;;10.50;1.00;;;;;;4972849;28;20426;-71
2022/03/12 08:58:29;;;;;;;24.73;22.83;;;10.60;1.00;;;;;;4970624;28;20453;-72
2022/03/12 09:00:55;;;;;;;21.10;19.50;;;10.70;1.00;;;;;;4973165;28;20418;-72
2022/03/12 09:03:21;;;;;;;22.77;21.17;;;10.70;1.00;;;;;;4973209;28;20898;-72
2022/03/12 09:05:48;;;;;;;22.93;21.23;;;10.80;1.00;;;;;;4975052;28;20434;-72
2022/03/12 09:08:15;;;;;;;24.80;22.60;;;10.80;1.00;;;;;;4976290;28;20214;-72
2022/03/12 09:10:41;;;;;;;21.80;20.20;;;11.00;1.00;;;;;;4975374;28;20438;-76
2022/03/12 09:13:07;;;;;;;26.10;23.40;;;11.20;1.00;;;;;;4976246;28;20468;-71
2022/03/12 09:15:36;;;;;;;23.43;21.30;;;11.30;1.00;;;;;;4976362;28;20931;-71
2022/03/12 09:18:02;;;;;;;22.07;20.37;;;11.10;1.00;;;;;;4976267;28;20442;-71
2022/03/12 09:20:28;;;;;;;23.43;21.80;;;10.90;1.00;;;;;;4976642;28;20482;-72
2022/03/12 09:22:54;;;;;;;23.30;21.60;;;11.10;1.00;;;;;;4976554;28;20187;-72
2022/03/12 09:25:20;;;;;;;23.77;21.63;;;11.10;1.00;;;;;;4976103;28;20439;-71
2022/03/12 09:27:46;;;;;;;22.90;21.23;;;10.90;1.00;;;;;;4975775;28;20437;-71
2022/03/12 09:30:13;;;;;;;24.23;21.70;;;10.50;1.00;;;;;;4975060;28;20184;-72
2022/03/12 09:32:39;;;;;;;21.63;20.03;;;10.70;1.00;;;;;;4975934;28;20431;-72
2022/03/12 09:35:05;;;;;;;24.43;22.53;;;10.90;1.00;;;;;;4976313;28;20802;-72
2022/03/12 09:37:32;;;;;;;23.77;21.63;;;11.00;1.00;;;;;;4975850;28;20419;-71
2022/03/12 09:39:59;;;;;;;28.23;25.13;;;10.80;1.00;;;;;;4976788;28;20432;-71
2022/03/12 09:42:28;;;;;;;27.27;25.27;;;10.60;1.00;;;;;;4975902;28;20435;-71
2022/03/12 09:44:54;;;;;;;23.03;21.53;;;10.60;1.10;;;;;;4975772;28;20424;-71
2022/03/12 09:47:19;;;;;;;25.90;23.80;;;10.70;1.10;;;;;;4975772;28;20418;-72
2022/03/12 09:49:45;;;;;;;23.90;21.47;;;10.90;1.30;;;;;;4975877;28;20188;-71
2022/03/12 09:52:11;;;;;;;26.47;24.33;;;11.20;1.00;;;;;;4975991;28;20181;-71
2022/03/12 09:54:37;;;;;;;24.00;22.13;;;11.00;1.00;;;;;;4975575;28;20558;-73
2022/03/12 09:57:03;;;;;;;22.23;20.93;;;11.00;1.10;;;;;;4975605;28;20422;-71
2022/03/12 09:59:28;;;;;;;27.40;24.90;;;10.80;1.20;;;;;;4975695;28;20283;-74
2022/03/12 10:01:55;;;;;;;28.07;25.07;;;11.10;1.10;;;;;;4975964;28;20181;-71
2022/03/12 10:04:21;;;;;;;25.10;22.93;;;11.30;1.00;;;;;;4973956;28;20234;-71
2022/03/12 10:06:47;;;;;;;22.20;20.50;;;11.30;1.00;;;;;;4974808;28;20499;-70
2022/03/12 10:09:13;;;;;;;26.10;24.00;;;11.10;1.00;;;;;;4975158;28;20875;-70
2022/03/12 10:11:41;;;;;;;24.67;22.73;;;11.20;1.20;;;;;;4974394;28;20452;-71
2022/03/12 10:14:08;;;;;;;25.40;23.10;;;11.30;1.00;;;;;;4974932;28;20210;-71
2022/03/12 10:16:33;;;;;;;22.80;20.60;;;11.50;1.00;;;;;;4972998;28;20439;-72
2022/03/12 10:18:59;;;;;;;24.83;22.63;;;11.60;1.00;;;;;;4975248;28;20434;-70
2022/03/12 10:21:26;;;;;;;24.23;22.30;;;11.90;1.00;;;;;;4975125;28;20191;-71
2022/03/12 10:23:51;;;;;;;21.10;19.50;;;11.60;1.00;;;;;;4974860;28;20432;-71
2022/03/12 10:26:17;;;;;;;21.47;19.87;;;11.70;1.00;;;;;;4974839;28;20979;-72
2022/03/12 10:28:43;;;;;;;20.73;19.03;;;11.70;1.00;;;;;;4974797;28;20288;-71
2022/03/12 10:31:12;;;;;;;22.23;20.40;;;11.70;1.10;;;;;;4975055;28;20421;-71
2022/03/12 10:33:37;;;;;;;23.03;21.27;;;11.90;1.30;;;;;;4974621;28;20463;-73
2022/03/12 10:36:15;;;;;;;24.10;22.00;;;12.00;1.20;;;;;;4975048;28;21017;-73
2022/03/12 10:38:50;;;;;;;21.43;19.90;;;12.10;1.30;;;;;;4973389;28;20208;-74
2022/03/12 10:41:17;;;;;;;20.80;19.17;;;12.10;1.70;;;;;;4975447;28;20756;-76
2022/03/12 10:43:51;;;;;;;21.73;20.00;;;12.20;1.50;;;;;;4974711;28;20432;-74
2022/03/12 10:46:28;;;;;;;23.40;21.60;;;12.40;1.20;;;;;;4974671;28;20420;-74
2022/03/12 10:48:58;;;;;;;23.47;21.70;;;12.30;1.00;;;;;;4974445;28;20960;-73
2022/03/12 10:51:26;;;;;;;22.60;21.00;;;12.50;1.00;;;;;;4973428;28;20507;-74
2022/03/12 10:54:04;;;;;;;24.90;22.93;;;12.70;1.00;;;;;;4974448;28;20468;-74
2022/03/12 10:56:42;;;;;;;23.00;21.00;;;12.70;1.00;;;;;;4974133;28;20429;-73
2022/03/12 10:59:15;;;;;;;22.33;20.80;;;12.80;1.00;;;;;;4974533;28;20448;-73
2022/03/12 11:01:51;;;;;;;21.57;19.90;;;12.90;1.00;;;;;;4974351;28;20471;-74
2022/03/12 11:04:21;;;;;;;21.47;19.77;;;13.00;1.00;;;;;;4974352;28;20542;-74
2022/03/12 11:06:46;;;;;;;21.83;20.27;;;13.20;1.00;;;;;;4972812;28;20480;-74
2022/03/12 11:09:18;;;;;;;21.83;20.10;;;13.10;1.00;;;;;;4982542;23;20499;-74
2022/03/12 11:11:47;;;;;;;23.37;21.53;;;13.20;1.60;;;;;;4954469;28;20181;-73
2022/03/12 11:14:20;;;;;;;24.37;22.30;;;13.10;1.10;;;;;;4969318;28;20880;-71
2022/03/12 11:16:52;;;;;;;22.17;20.30;;;13.00;1.60;;;;;;4954393;29;20911;-74
2022/03/12 11:19:37;;;;;;;21.80;20.20;;;13.00;1.50;;;;;;4954648;28;20931;-73
2022/03/12 11:22:09;;;;;;;19.67;18.47;;;13.00;2.80;;;;;;4954394;28;20854;-74
2022/03/12 11:24:50;;;;;;;22.47;20.70;;;13.00;2.70;;;;;;4953258;29;20433;-73
2022/03/12 11:27:28;;;;;;;19.33;17.93;;;13.00;2.70;;;;;;4954078;28;20419;-74
2022/03/12 11:30:08;;;;;;;20.03;18.47;;;12.90;2.70;;;;;;4954235;28;20446;-73
2022/03/12 11:32:37;;;;;;;22.20;20.80;;;12.80;2.60;;;;;;4953921;28;20436;-73
2022/03/12 11:35:10;;;;;;;21.57;19.80;;;13.00;2.80;;;;;;4954186;28;20426;-73
2022/03/12 11:37:38;;;;;;;22.27;20.07;;;13.20;2.90;;;;;;4954075;28;20472;-73
2022/03/12 11:40:10;;;;;;;22.03;20.23;;;13.00;2.80;;;;;;4954213;29;20410;-73
2022/03/12 11:42:36;;;;;;;20.73;19.23;;;13.00;3.30;;;;;;4954200;29;20529;-73
2022/03/12 11:45:05;;;;;;;20.73;19.43;;;13.00;3.10;;;;;;4954251;29;20414;-73
2022/03/12 11:47:34;;;;;;;22.17;20.47;;;13.30;3.50;;;;;;4953347;28;20438;-73
2022/03/12 11:50:03;;;;;;;21.50;19.90;;;13.20;2.90;;;;;;4952895;28;21013;-74
2022/03/12 11:52:30;;;;;;;19.60;18.20;;;13.20;3.70;;;;;;4954062;28;20417;-72
2022/03/12 11:54:57;;;;;;;21.90;20.00;;;13.20;3.60;;;;;;4953856;28;20816;-69
2022/03/12 11:57:28;;;;;;;22.47;20.37;;;13.10;3.80;;;;;;4954190;28;20425;-70
2022/03/12 11:59:55;;;;;;;19.33;17.97;;;13.30;3.50;;;;;;4954157;28;20444;-70
2022/03/12 12:02:22;;;;;;;21.00;19.50;;;13.40;4.00;;;;;;4953822;28;20520;-70
2022/03/12 12:04:51;;;;;;;21.30;19.90;;;13.30;3.80;;;;;;4952910;29;20453;-70
2022/03/12 12:07:17;;;;;;;20.00;18.53;;;13.20;4.40;;;;;;4954088;28;20424;-70
2022/03/12 12:09:42;;;;;;;19.30;18.00;;;13.10;4.30;;;;;;4953749;28;20464;-69
2022/03/12 12:12:12;;;;;;;21.00;19.50;;;13.20;4.10;;;;;;4952432;29;20434;-70
2022/03/12 12:14:38;;;;;;;20.90;19.50;;;13.20;3.50;;;;;;4952672;29;20206;-70
2022/03/12 12:17:04;;;;;;;20.43;19.03;;;13.20;3.70;;;;;;4953429;28;20888;-70
2022/03/12 12:19:30;;;;;;;21.07;19.47;;;13.20;3.80;;;;;;4953657;28;20513;-69
2022/03/12 12:21:55;;;;;;;21.97;20.40;;;13.40;4.10;;;;;;4953846;28;20900;-69
2022/03/12 12:24:28;;;;;;;22.10;20.23;;;13.50;3.70;;;;;;4953361;28;20186;-70
2022/03/12 12:27:08;;;;;;;18.83;17.70;;;13.60;3.50;;;;;;4953656;28;20245;-69
2022/03/12 12:29:54;;;;;;;20.13;18.73;;;13.60;3.10;;;;;;4952419;28;20533;-69
2022/03/12 12:32:26;;;;;;;20.20;18.83;;;13.60;3.10;;;;;;4952415;29;20426;-69
2022/03/12 12:35:15;;;;;;;21.77;20.27;;;13.70;3.30;;;;;;4952131;29;20461;-70
2022/03/12 12:37:48;;;;;;;20.87;19.57;;;13.70;3.20;;;;;;4953419;28;20420;-70
2022/03/12 12:40:21;;;;;;;20.60;19.17;;;13.80;3.30;;;;;;4953976;28;20520;-69
2022/03/12 12:42:51;;;;;;;20.03;18.73;;;13.60;3.20;;;;;;4957761;29;20445;-69
2022/03/12 12:45:20;;;;;;;21.73;20.13;;;13.60;3.80;;;;;;4957202;28;20425;-69